Time;durP1;ratioP1;P1;durP2;ratioP2;P2;SDS_P1;SDS_P2;PMS_P1;PMS_P2;Temp;Humidity;BMP_temperature;BMP_pressure;BME280_temperature;BME280_humidity;BME280_pressure;Samples;Min_cycle;Max_cycle;Signal;HPM_P1;HPM_P2
2022/05/09 00:01:55;;;;;;;5.87;3.40;;;7.60;99.90;;;;;;5031785;28;20204;-82
2022/05/09 00:04:24;;;;;;;5.73;3.27;;;7.40;99.90;;;;;;5000869;28;20534;-82
2022/05/09 00:06:51;;;;;;;5.90;3.40;;;7.40;99.90;;;;;;5036903;28;20579;-82
2022/05/09 00:09:18;;;;;;;5.83;3.43;;;7.40;99.90;;;;;;5028950;28;20196;-82
2022/05/09 00:11:46;;;;;;;6.93;3.30;;;7.40;99.90;;;;;;5025479;28;20204;-82
2022/05/09 00:14:13;;;;;;;5.67;2.80;;;7.40;99.90;;;;;;5009747;28;20220;-82
2022/05/09 00:16:41;;;;;;;5.70;2.87;;;7.40;99.90;;;;;;5015462;28;20220;-82
2022/05/09 00:19:09;;;;;;;5.93;3.10;;;7.40;99.90;;;;;;5019053;28;20566;-82
2022/05/09 00:21:41;;;;;;;4.60;3.07;;;7.30;99.90;;;;;;5029559;28;20271;-82
2022/05/09 00:24:12;;;;;;;6.20;2.97;;;7.40;99.90;;;;;;5038564;28;20680;-83
2022/05/09 00:26:39;;;;;;;5.70;2.77;;;7.40;99.90;;;;;;5036559;28;20223;-82
2022/05/09 00:29:07;;;;;;;6.10;2.60;;;7.40;99.90;;;;;;5009745;28;20215;-82
2022/05/09 00:31:33;;;;;;;4.10;2.50;;;7.30;99.90;;;;;;5028924;28;20219;-82
2022/05/09 00:34:00;;;;;;;4.13;3.03;;;7.30;99.90;;;;;;5012256;28;20219;-82
2022/05/09 00:36:27;;;;;;;6.97;3.10;;;7.30;99.90;;;;;;5008831;28;20506;-82
2022/05/09 00:38:55;;;;;;;4.30;2.87;;;7.40;99.90;;;;;;5032456;28;20200;-82
2022/05/09 00:41:34;;;;;;;5.87;3.27;;;7.30;99.90;;;;;;5003981;28;20571;-82
2022/05/09 00:44:04;;;;;;;3.47;3.17;;;7.20;99.90;;;;;;5029328;28;20227;-82
2022/05/09 00:46:32;;;;;;;6.27;3.83;;;7.20;99.90;;;;;;5009990;28;20669;-82
2022/05/09 00:49:05;;;;;;;4.67;3.87;;;7.20;99.90;;;;;;5012190;28;20563;-82
2022/05/09 00:51:33;;;;;;;5.63;3.57;;;7.20;99.90;;;;;;5021917;28;20325;-82
2022/05/09 00:54:03;;;;;;;4.43;3.03;;;7.20;99.90;;;;;;5030653;28;20587;-82
2022/05/09 00:56:36;;;;;;;6.13;3.67;;;7.20;99.90;;;;;;5018610;28;20257;-81
2022/05/09 00:59:09;;;;;;;4.13;3.60;;;7.20;99.90;;;;;;5025331;28;20258;-82
2022/05/09 01:01:36;;;;;;;7.13;3.50;;;7.20;99.90;;;;;;5013353;28;20215;-82
2022/05/09 01:04:10;;;;;;;6.70;3.70;;;7.20;99.90;;;;;;5011056;28;20235;-82
2022/05/09 01:06:38;;;;;;;5.60;3.30;;;7.20;99.90;;;;;;5031923;28;20239;-82
2022/05/09 01:09:07;;;;;;;5.97;2.70;;;7.20;99.90;;;;;;5001735;28;20216;-83
2022/05/09 01:11:36;;;;;;;4.77;2.90;;;7.20;99.90;;;;;;5028380;28;20192;-83
2022/05/09 01:14:07;;;;;;;4.50;3.33;;;7.10;99.90;;;;;;5039169;28;20234;-82
2022/05/09 01:16:34;;;;;;;5.00;3.00;;;7.10;99.90;;;;;;5012032;28;20206;-82
2022/05/09 01:19:09;;;;;;;3.07;2.77;;;7.00;99.90;;;;;;5015007;28;20259;-82
2022/05/09 01:21:40;;;;;;;5.77;2.93;;;7.00;99.90;;;;;;5020388;28;20192;-82
2022/05/09 01:24:15;;;;;;;3.47;2.97;;;7.00;99.90;;;;;;4996916;28;20322;-82
2022/05/09 01:26:42;;;;;;;6.80;2.80;;;6.90;99.90;;;;;;5030035;28;20281;-82
2022/05/09 01:29:14;;;;;;;4.30;2.87;;;6.80;99.90;;;;;;5021381;28;20274;-82
2022/05/09 01:31:42;;;;;;;6.83;3.27;;;6.80;99.90;;;;;;5012753;28;20219;-82
2022/05/09 01:34:11;;;;;;;4.37;3.00;;;6.60;99.90;;;;;;5008135;28;20223;-82
2022/05/09 01:36:40;;;;;;;4.50;3.23;;;6.60;99.90;;;;;;5030621;28;20224;-83
2022/05/09 01:39:08;;;;;;;3.37;2.40;;;6.60;99.90;;;;;;5014653;28;20589;-83
2022/05/09 01:41:37;;;;;;;5.37;2.50;;;6.60;99.90;;;;;;5034354;28;20199;-82
2022/05/09 01:44:05;;;;;;;3.50;2.60;;;6.60;99.90;;;;;;5025451;28;20224;-82
2022/05/09 01:46:33;;;;;;;5.27;2.97;;;6.60;99.90;;;;;;5031856;28;20760;-82
2022/05/09 01:51:47;;;;;;;7.57;2.83;;;6.50;99.90;;;;;;5016324;28;20195;-83
2022/05/09 01:54:16;;;;;;;6.37;3.03;;;6.50;99.90;;;;;;5035792;28;20696;-83
2022/05/09 01:56:43;;;;;;;2.70;2.50;;;6.50;99.90;;;;;;5032785;28;20699;-83
2022/05/09 01:59:12;;;;;;;5.73;2.70;;;6.40;99.90;;;;;;5006880;28;20232;-82
2022/05/09 02:01:42;;;;;;;5.27;3.00;;;6.50;99.90;;;;;;5033125;28;20202;-83
2022/05/09 02:04:11;;;;;;;4.03;2.77;;;6.50;99.90;;;;;;5010713;28;20251;-82
2022/05/09 02:06:37;;;;;;;4.20;2.50;;;6.40;99.90;;;;;;5013617;28;20228;-82
2022/05/09 02:09:10;;;;;;;2.77;2.40;;;6.40;99.90;;;;;;5034813;28;20196;-82
2022/05/09 02:11:36;;;;;;;5.40;2.83;;;6.40;99.90;;;;;;5017257;28;20203;-82
2022/05/09 02:14:04;;;;;;;3.90;2.50;;;6.40;99.90;;;;;;5025152;28;20220;-82
2022/05/09 02:16:31;;;;;;;2.97;2.43;;;6.40;99.90;;;;;;5012395;28;20226;-82
2022/05/09 02:18:58;;;;;;;4.13;2.53;;;6.30;99.90;;;;;;5012539;28;20263;-82
2022/05/09 02:21:25;;;;;;;5.83;2.03;;;6.30;99.90;;;;;;5027719;28;20413;-82
2022/05/09 02:23:52;;;;;;;2.23;1.83;;;6.30;99.90;;;;;;5032355;28;20295;-82
2022/05/09 02:26:20;;;;;;;4.73;2.60;;;6.30;99.90;;;;;;4996204;28;20299;-82
2022/05/09 02:28:47;;;;;;;4.13;2.47;;;6.30;99.90;;;;;;5007743;28;20234;-83
2022/05/09 02:31:14;;;;;;;4.93;2.33;;;6.30;99.90;;;;;;5007994;28;20770;-83
2022/05/09 02:33:41;;;;;;;5.50;2.57;;;6.20;99.90;;;;;;5030667;28;20232;-83
2022/05/09 02:36:09;;;;;;;8.03;2.40;;;6.20;99.90;;;;;;5028120;28;20196;-83
2022/05/09 02:38:36;;;;;;;3.83;2.07;;;6.20;99.90;;;;;;5012345;28;20207;-82
2022/05/09 02:41:03;;;;;;;3.37;2.10;;;6.20;99.90;;;;;;5022228;28;20211;-83
2022/05/09 02:43:31;;;;;;;2.73;2.47;;;6.20;99.90;;;;;;5022039;28;20521;-83
2022/05/09 02:46:03;;;;;;;4.47;2.23;;;6.10;99.90;;;;;;5006092;28;20557;-83
2022/05/09 02:48:30;;;;;;;4.83;2.10;;;6.10;99.90;;;;;;5029750;28;20223;-83
2022/05/09 02:50:58;;;;;;;3.53;2.10;;;6.20;99.90;;;;;;5026808;28;20211;-82
2022/05/09 02:53:24;;;;;;;6.53;2.60;;;6.10;99.90;;;;;;5025912;28;20489;-83
2022/05/09 02:55:52;;;;;;;5.43;2.30;;;6.00;99.90;;;;;;5030911;28;20196;-82
2022/05/09 02:58:19;;;;;;;6.17;2.10;;;6.00;99.90;;;;;;4997824;28;20426;-83
2022/05/09 03:00:47;;;;;;;4.07;2.20;;;6.00;99.90;;;;;;5039630;28;20204;-82
2022/05/09 03:05:59;;;;;;;4.97;2.30;;;5.80;99.90;;;;;;5029051;28;20207;-83
2022/05/09 03:08:25;;;;;;;4.13;2.10;;;5.80;99.90;;;;;;5009925;28;20219;-83
2022/05/09 03:10:52;;;;;;;2.73;2.00;;;5.80;99.90;;;;;;5029752;28;20204;-83
2022/05/09 03:13:19;;;;;;;4.73;1.90;;;5.80;99.90;;;;;;5010169;28;20698;-82
2022/05/09 03:15:49;;;;;;;5.37;2.23;;;5.80;99.90;;;;;;5026803;28;20208;-82
2022/05/09 03:18:21;;;;;;;2.83;2.20;;;5.80;99.90;;;;;;5041041;28;20290;-82
2022/05/09 03:20:48;;;;;;;4.17;2.37;;;5.80;99.90;;;;;;5032585;28;20192;-82
2022/05/09 03:23:15;;;;;;;4.07;1.90;;;5.80;99.90;;;;;;5031789;28;20357;-82
2022/05/09 03:25:42;;;;;;;2.80;1.93;;;5.80;99.90;;;;;;5030595;28;20220;-82
2022/05/09 03:28:12;;;;;;;5.33;2.13;;;5.80;99.90;;;;;;5017049;28;20219;-82
2022/05/09 03:30:48;;;;;;;2.53;1.87;;;5.80;99.90;;;;;;5006766;28;20310;-82
2022/05/09 03:33:15;;;;;;;4.40;2.20;;;5.80;99.90;;;;;;5009548;28;20196;-83
2022/05/09 03:35:45;;;;;;;3.47;2.17;;;5.80;99.90;;;;;;5010862;28;20274;-82
2022/05/09 03:38:12;;;;;;;5.80;2.10;;;5.70;99.90;;;;;;5007912;28;20267;-83
2022/05/09 03:40:39;;;;;;;4.03;1.93;;;5.80;99.90;;;;;;5028467;28;20192;-82
2022/05/09 03:43:06;;;;;;;6.80;2.10;;;5.70;99.90;;;;;;5006951;28;20231;-83
2022/05/09 03:45:35;;;;;;;5.73;2.10;;;5.80;99.90;;;;;;5023927;28;20223;-83
2022/05/09 03:48:03;;;;;;;7.07;2.27;;;5.70;99.90;;;;;;5012705;28;20297;-83
2022/05/09 03:50:30;;;;;;;3.87;2.10;;;5.80;99.90;;;;;;5030304;28;20505;-83
2022/05/09 03:52:57;;;;;;;2.43;2.00;;;5.80;99.90;;;;;;5025575;28;20632;-84
2022/05/09 03:55:24;;;;;;;6.60;3.00;;;5.80;99.90;;;;;;5025288;28;20286;-83
2022/05/09 03:57:54;;;;;;;5.67;2.07;;;5.80;99.90;;;;;;5020496;28;20535;-83
2022/05/09 04:00:24;;;;;;;7.03;2.13;;;5.90;99.90;;;;;;5009361;28;20849;-83
2022/05/09 04:02:50;;;;;;;5.40;2.00;;;5.80;99.90;;;;;;5020901;28;20204;-83
2022/05/09 04:05:19;;;;;;;4.07;2.27;;;5.80;99.90;;;;;;5023716;28;20216;-83
2022/05/09 04:07:48;;;;;;;2.33;1.73;;;5.80;99.90;;;;;;5026573;28;20208;-83
2022/05/09 04:10:19;;;;;;;4.80;1.90;;;5.80;99.90;;;;;;5016472;28;20398;-83
2022/05/09 04:12:46;;;;;;;5.03;2.33;;;5.90;99.90;;;;;;5026941;28;20201;-83
2022/05/09 04:17:57;;;;;;;7.33;2.23;;;5.90;99.90;;;;;;5016567;28;20201;-83
2022/05/09 04:20:28;;;;;;;7.83;2.10;;;5.80;99.90;;;;;;5023008;28;20245;-82
2022/05/09 04:22:55;;;;;;;4.47;2.13;;;5.90;99.90;;;;;;5033137;28;20210;-82
2022/05/09 04:25:22;;;;;;;7.30;2.37;;;5.90;99.90;;;;;;5008166;28;20220;-82
2022/05/09 04:27:51;;;;;;;8.10;2.40;;;5.90;99.90;;;;;;5041912;28;20215;-82
2022/05/09 04:30:18;;;;;;;3.13;1.80;;;5.90;99.90;;;;;;5011456;28;20554;-83
2022/05/09 04:32:45;;;;;;;2.53;2.07;;;5.90;99.90;;;;;;5023452;28;20203;-83
2022/05/09 04:35:17;;;;;;;4.83;1.90;;;5.90;99.90;;;;;;5034414;28;20430;-83
2022/05/09 04:37:48;;;;;;;4.30;2.13;;;5.90;99.90;;;;;;5028074;28;20211;-83
2022/05/09 04:40:16;;;;;;;4.73;1.63;;;6.00;99.90;;;;;;5007440;28;20204;-83
2022/05/09 04:42:42;;;;;;;4.23;2.60;;;6.00;99.90;;;;;;5005587;28;20220;-83
2022/05/09 04:45:11;;;;;;;5.77;2.37;;;6.10;99.90;;;;;;5038090;28;20220;-82
2022/05/09 04:47:37;;;;;;;4.27;1.87;;;6.10;99.90;;;;;;5002029;28;20219;-82
2022/05/09 04:50:05;;;;;;;1.97;1.80;;;6.20;99.90;;;;;;5016751;28;20554;-82
2022/05/09 04:52:32;;;;;;;7.57;2.53;;;6.20;99.90;;;;;;5026840;28;20195;-83
2022/05/09 04:55:00;;;;;;;3.93;1.63;;;6.30;99.90;;;;;;5005013;28;20222;-82
2022/05/09 04:57:27;;;;;;;5.97;2.37;;;6.40;99.90;;;;;;5006217;28;20196;-82
2022/05/09 04:59:54;;;;;;;6.17;1.93;;;6.40;99.90;;;;;;5024769;28;20223;-82
2022/05/09 05:02:21;;;;;;;4.63;1.93;;;6.50;99.90;;;;;;4988216;28;20816;-84
2022/05/09 05:04:48;;;;;;;5.10;2.00;;;6.60;99.90;;;;;;5020190;28;20232;-81
2022/05/09 05:07:14;;;;;;;6.03;2.43;;;6.70;99.90;;;;;;5004252;28;20358;-82
2022/05/09 05:09:41;;;;;;;4.30;2.20;;;6.70;99.90;;;;;;5026990;28;20220;-82
2022/05/09 05:12:10;;;;;;;5.90;2.30;;;6.80;99.90;;;;;;5003913;28;20203;-82
2022/05/09 05:14:37;;;;;;;5.73;2.13;;;6.90;99.90;;;;;;5042418;28;20554;-81
2022/05/09 05:17:05;;;;;;;3.67;1.90;;;7.00;99.90;;;;;;5015274;28;20597;-81
2022/05/09 05:19:36;;;;;;;3.13;1.70;;;7.10;99.90;;;;;;5023674;28;20195;-82
2022/05/09 05:22:06;;;;;;;4.70;1.87;;;7.20;99.90;;;;;;5038200;28;20557;-81
2022/05/09 05:24:34;;;;;;;3.33;2.27;;;7.30;99.90;;;;;;5029318;28;20643;-82
2022/05/09 05:27:01;;;;;;;2.67;1.90;;;7.40;99.90;;;;;;5026992;28;20570;-81
2022/05/09 05:29:29;;;;;;;7.60;2.23;;;7.50;99.90;;;;;;5028196;28;20224;-82
2022/05/09 05:31:56;;;;;;;3.67;2.17;;;7.50;99.90;;;;;;5027508;28;20558;-81
2022/05/09 05:34:23;;;;;;;2.57;1.57;;;7.60;99.90;;;;;;5007582;28;21318;-82
2022/05/09 05:36:51;;;;;;;3.80;1.97;;;7.70;99.90;;;;;;5027651;28;20668;-82
2022/05/09 05:39:18;;;;;;;7.07;2.17;;;7.80;99.90;;;;;;5025375;28;20222;-82
2022/05/09 05:41:45;;;;;;;7.23;2.00;;;7.90;99.90;;;;;;5027066;28;20192;-82
2022/05/09 05:44:13;;;;;;;3.23;1.80;;;8.00;99.90;;;;;;5023084;28;20493;-83
2022/05/09 05:46:42;;;;;;;6.20;2.33;;;8.20;99.90;;;;;;5003329;28;20439;-82
2022/05/09 05:49:09;;;;;;;8.23;3.20;;;8.30;99.90;;;;;;5009646;28;20240;-82
2022/05/09 05:51:37;;;;;;;5.27;1.93;;;8.40;99.90;;;;;;5015732;28;20345;-81
2022/05/09 05:54:07;;;;;;;4.53;1.90;;;8.50;99.90;;;;;;5030135;28;20228;-82
2022/05/09 05:56:37;;;;;;;3.67;2.10;;;8.70;99.90;;;;;;5017351;28;20489;-81
2022/05/09 05:59:04;;;;;;;7.93;2.80;;;8.80;99.90;;;;;;5024363;28;20228;-81
2022/05/09 06:01:33;;;;;;;5.73;2.30;;;8.90;99.90;;;;;;5025289;28;20191;-81
2022/05/09 06:04:01;;;;;;;6.93;2.03;;;9.10;99.90;;;;;;5028915;28;20223;-82
2022/05/09 06:06:28;;;;;;;5.83;1.77;;;9.20;99.90;;;;;;4993762;28;20227;-82
2022/05/09 06:08:55;;;;;;;5.80;1.93;;;9.30;99.90;;;;;;5010463;28;20219;-82
2022/05/09 06:11:22;;;;;;;5.83;1.90;;;9.50;99.90;;;;;;5005729;28;20311;-82
2022/05/09 06:13:48;;;;;;;4.67;2.23;;;9.60;99.90;;;;;;5013819;28;20664;-82
2022/05/09 06:16:15;;;;;;;4.77;2.10;;;9.70;99.90;;;;;;5019378;28;20204;-82
2022/05/09 06:18:42;;;;;;;6.87;2.30;;;9.80;99.90;;;;;;5033662;28;20223;-82
2022/05/09 06:21:10;;;;;;;12.13;2.17;;;9.90;99.90;;;;;;4997625;28;20204;-82
2022/05/09 06:23:37;;;;;;;5.50;1.90;;;10.00;99.90;;;;;;5010913;28;20581;-82
2022/05/09 06:26:04;;;;;;;3.47;1.77;;;10.20;99.90;;;;;;5005165;28;20204;-81
2022/05/09 06:28:31;;;;;;;4.63;1.80;;;10.30;99.90;;;;;;4991530;28;20209;-81
2022/05/09 06:30:58;;;;;;;6.07;1.70;;;10.40;99.90;;;;;;5025976;28;20539;-81
2022/05/09 06:33:25;;;;;;;7.73;2.50;;;10.50;99.90;;;;;;5008905;28;20204;-81
2022/05/09 06:35:54;;;;;;;4.00;2.00;;;10.60;99.90;;;;;;5011270;28;20204;-81
2022/05/09 06:38:23;;;;;;;7.53;2.10;;;10.70;99.90;;;;;;5016246;28;20196;-81
2022/05/09 06:40:49;;;;;;;5.70;1.83;;;10.80;99.90;;;;;;5034798;28;20196;-82
2022/05/09 06:43:16;;;;;;;4.43;1.77;;;10.90;99.90;;;;;;5020186;28;20207;-83
2022/05/09 06:45:43;;;;;;;4.67;1.70;;;11.10;99.90;;;;;;5011916;28;20196;-83
2022/05/09 06:48:10;;;;;;;6.17;2.07;;;11.20;99.90;;;;;;5013988;28;20263;-82
2022/05/09 06:50:39;;;;;;;8.30;2.20;;;11.30;99.90;;;;;;5009855;28;20211;-82
2022/05/09 06:53:07;;;;;;;7.73;1.77;;;11.30;99.90;;;;;;5015032;28;20205;-82
2022/05/09 06:55:35;;;;;;;6.13;2.27;;;11.40;99.90;;;;;;5008123;28;20254;-82
2022/05/09 06:58:06;;;;;;;6.73;2.23;;;11.50;99.90;;;;;;5020016;28;20203;-83
2022/05/09 07:00:33;;;;;;;6.17;1.70;;;11.70;99.90;;;;;;5026580;28;20200;-82
2022/05/09 07:03:01;;;;;;;5.43;2.10;;;11.70;99.90;;;;;;5021277;28;20199;-82
2022/05/09 07:05:28;;;;;;;10.37;1.70;;;11.80;99.90;;;;;;5021945;28;20423;-82
2022/05/09 07:07:54;;;;;;;6.90;1.60;;;11.80;99.90;;;;;;4997710;28;20234;-82
2022/05/09 07:10:22;;;;;;;5.10;1.83;;;11.90;99.90;;;;;;5021493;28;20482;-82
2022/05/09 07:12:53;;;;;;;9.17;1.60;;;12.00;99.90;;;;;;5019046;28;20306;-82
2022/05/09 07:15:23;;;;;;;5.27;1.80;;;12.10;99.90;;;;;;5010490;28;20242;-82
2022/05/09 07:17:51;;;;;;;7.70;1.90;;;12.10;99.90;;;;;;5021314;28;20734;-82
2022/05/09 07:20:20;;;;;;;5.77;1.83;;;12.20;99.90;;;;;;5022036;28;20189;-82
2022/05/09 07:22:47;;;;;;;6.13;2.07;;;12.20;99.90;;;;;;5002834;28;20608;-82
2022/05/09 07:25:16;;;;;;;7.07;1.87;;;12.30;99.90;;;;;;5023878;28;20654;-83
2022/05/09 07:27:43;;;;;;;11.70;2.43;;;12.40;99.90;;;;;;5007532;28;20664;-82
2022/05/09 07:30:14;;;;;;;4.20;1.60;;;12.50;99.90;;;;;;5017200;28;20228;-82
2022/05/09 07:32:41;;;;;;;4.47;1.70;;;12.60;99.90;;;;;;5023970;28;20228;-82
2022/05/09 07:35:11;;;;;;;5.73;1.60;;;12.70;99.90;;;;;;5024722;28;20289;-82
2022/05/09 07:37:39;;;;;;;3.90;1.60;;;12.70;99.90;;;;;;5012247;28;20218;-82
2022/05/09 07:40:07;;;;;;;5.43;1.70;;;12.90;99.90;;;;;;5022166;28;20227;-82
2022/05/09 07:42:35;;;;;;;3.90;1.63;;;13.00;99.90;;;;;;5020714;28;20515;-82
2022/05/09 07:45:03;;;;;;;5.87;1.40;;;13.00;99.90;;;;;;5018379;28;20227;-82
2022/05/09 07:47:31;;;;;;;5.40;1.43;;;13.00;99.90;;;;;;5014586;28;20676;-82
2022/05/09 07:49:58;;;;;;;3.73;1.40;;;13.10;99.90;;;;;;5020649;28;20303;-82
2022/05/09 07:52:25;;;;;;;5.73;1.73;;;13.20;99.90;;;;;;5020808;28;20196;-83
2022/05/09 07:54:52;;;;;;;3.87;1.70;;;13.40;99.90;;;;;;5013034;28;20236;-82
2022/05/09 07:57:19;;;;;;;6.03;1.40;;;13.40;99.90;;;;;;5011682;28;20397;-82
2022/05/09 07:59:45;;;;;;;5.27;1.63;;;13.50;99.90;;;;;;5025180;28;20197;-83
2022/05/09 08:02:12;;;;;;;6.73;1.67;;;13.60;99.90;;;;;;4997908;28;20634;-83
2022/05/09 08:04:40;;;;;;;6.10;1.53;;;13.60;99.90;;;;;;5019508;28;20266;-82
2022/05/09 08:07:08;;;;;;;2.60;1.40;;;13.70;99.90;;;;;;5008137;28;20246;-83
2022/05/09 08:09:35;;;;;;;4.30;1.50;;;13.90;99.90;;;;;;5013142;28;20650;-83
2022/05/09 08:12:04;;;;;;;6.20;1.87;;;14.00;99.40;;;;;;5024334;28;20218;-83
2022/05/09 08:14:31;;;;;;;7.93;1.90;;;14.00;98.30;;;;;;5024486;28;20289;-83
2022/05/09 08:17:16;;;;;;;4.03;1.30;;;14.10;97.20;;;;;;5016055;28;20421;-83
2022/05/09 08:19:45;;;;;;;4.20;1.73;;;14.30;96.50;;;;;;5000763;28;20214;-83
2022/05/09 08:22:13;;;;;;;2.20;1.30;;;14.40;95.50;;;;;;5029142;28;20425;-83
2022/05/09 08:24:41;;;;;;;3.40;1.10;;;14.40;95.30;;;;;;5027265;28;20234;-83
2022/05/09 08:27:08;;;;;;;3.47;1.23;;;14.60;94.50;;;;;;5008225;28;20236;-84
2022/05/09 08:29:34;;;;;;;2.57;1.43;;;14.60;93.50;;;;;;5025925;28;20311;-83
2022/05/09 08:32:01;;;;;;;2.63;1.23;;;14.70;93.10;;;;;;5019333;28;20600;-83
2022/05/09 08:34:28;;;;;;;2.90;1.53;;;14.70;92.50;;;;;;5003631;28;20691;-83
2022/05/09 08:36:57;;;;;;;4.20;1.60;;;14.70;91.80;;;;;;5024943;28;20202;-83
2022/05/09 08:39:26;;;;;;;3.50;1.33;;;14.80;92.30;;;;;;5027325;28;20196;-83
2022/05/09 08:41:56;;;;;;;5.33;1.47;;;14.90;92.00;;;;;;5001488;28;20207;-83
2022/05/09 08:44:44;;;;;;;3.07;1.67;;;15.00;91.10;;;;;;5024845;28;20583;-83
2022/05/09 08:47:37;;;;;;;2.47;1.30;;;15.00;91.00;;;;;;5002676;28;20776;-83
2022/05/09 08:50:13;;;;;;;4.43;1.40;;;15.00;90.70;;;;;;5013067;28;20222;-83
2022/05/09 08:52:49;;;;;;;6.13;1.80;;;15.20;90.60;;;;;;5014887;28;20651;-83
2022/05/09 08:55:19;;;;;;;3.13;1.50;;;15.10;90.60;;;;;;5000194;28;20231;-83
2022/05/09 08:57:52;;;;;;;6.47;1.60;;;15.10;89.40;;;;;;5012033;28;20780;-80
2022/05/09 09:00:21;;;;;;;4.27;1.33;;;15.10;89.10;;;;;;5032334;28;20200;-83
2022/05/09 09:02:52;;;;;;;4.33;1.70;;;15.30;89.20;;;;;;4996870;28;20354;-83
2022/05/09 09:05:23;;;;;;;5.43;1.60;;;15.30;88.60;;;;;;4999524;28;20235;-83
2022/05/09 09:08:01;;;;;;;6.27;1.60;;;15.50;87.90;;;;;;5028639;28;20208;-82
2022/05/09 09:10:33;;;;;;;4.83;1.53;;;15.60;87.80;;;;;;5021281;28;20742;-83
2022/05/09 09:13:19;;;;;;;8.70;1.67;;;15.70;88.00;;;;;;5009335;28;20204;-81
2022/05/09 09:15:53;;;;;;;5.67;1.60;;;15.90;87.30;;;;;;5036777;28;20204;-81
2022/05/09 09:18:31;;;;;;;4.23;1.47;;;15.80;87.10;;;;;;5015246;28;20723;-81
2022/05/09 09:21:07;;;;;;;8.00;2.13;;;15.90;86.70;;;;;;5024576;28;20660;-81
2022/05/09 09:23:49;;;;;;;3.47;1.53;;;16.10;84.80;;;;;;5021596;28;20421;-81
2022/05/09 09:26:28;;;;;;;3.13;1.60;;;16.10;86.10;;;;;;5007200;28;20199;-83
2022/05/09 09:29:02;;;;;;;6.43;1.73;;;16.20;85.40;;;;;;4995598;28;20203;-81
2022/05/09 09:31:34;;;;;;;3.77;1.70;;;16.30;83.70;;;;;;5022737;28;20195;-82
2022/05/09 09:34:09;;;;;;;7.27;1.80;;;16.30;83.50;;;;;;4999590;28;20398;-81
2022/05/09 09:36:43;;;;;;;3.47;1.43;;;16.50;82.10;;;;;;5017042;28;20429;-81
2022/05/09 09:39:16;;;;;;;7.63;1.90;;;16.40;83.30;;;;;;5022576;28;20254;-81
2022/05/09 09:41:43;;;;;;;5.97;2.10;;;16.50;81.80;;;;;;5019629;28;20479;-82
2022/05/09 09:44:13;;;;;;;3.43;1.40;;;16.60;80.60;;;;;;5019805;28;20249;-82
2022/05/09 09:47:04;;;;;;;1.83;1.33;;;16.70;80.70;;;;;;4993648;28;20210;-82
2022/05/09 09:49:32;;;;;;;4.33;1.40;;;16.70;78.80;;;;;;5010699;28;20224;-82
2022/05/09 09:51:59;;;;;;;3.23;1.70;;;16.80;77.30;;;;;;5023563;28;20644;-82
2022/05/09 09:54:29;;;;;;;7.40;1.70;;;16.80;78.40;;;;;;5021971;28;20208;-82
2022/05/09 09:56:56;;;;;;;7.03;2.17;;;16.90;77.50;;;;;;5025772;28;20656;-82
2022/05/09 09:59:25;;;;;;;5.83;1.50;;;16.80;77.40;;;;;;5026666;28;20207;-82
2022/05/09 10:02:05;;;;;;;5.37;1.80;;;16.70;78.70;;;;;;5011985;28;20231;-82
2022/05/09 10:04:32;;;;;;;5.27;1.70;;;16.80;77.70;;;;;;5000270;28;20227;-83
2022/05/09 10:07:02;;;;;;;4.97;1.83;;;16.90;79.10;;;;;;5027767;28;20207;-82
2022/05/09 10:09:37;;;;;;;4.37;1.60;;;17.10;78.10;;;;;;5018387;28;20290;-82
2022/05/09 10:12:22;;;;;;;8.30;1.60;;;17.20;77.70;;;;;;5045704;28;20195;-82
2022/05/09 10:14:51;;;;;;;4.50;1.73;;;17.10;78.40;;;;;;5025470;28;20227;-82
2022/05/09 10:17:28;;;;;;;6.63;2.30;;;17.10;78.70;;;;;;5018485;28;20567;-83
2022/05/09 10:19:57;;;;;;;4.90;1.73;;;17.30;79.00;;;;;;5028681;28;20587;-83
2022/05/09 10:25:23;;;;;;;4.63;1.67;;;17.30;76.60;;;;;;5023355;28;20246;-82
2022/05/09 10:28:07;;;;;;;9.67;2.20;;;17.40;77.00;;;;;;5023615;28;20361;-85
2022/05/09 10:30:37;;;;;;;8.40;2.53;;;17.50;76.50;;;;;;5011763;28;20378;-81
2022/05/09 10:33:10;;;;;;;8.17;1.80;;;17.60;75.50;;;;;;5014663;28;20203;-83
2022/05/09 10:35:44;;;;;;;8.10;2.80;;;17.80;74.80;;;;;;5031728;28;20230;-83
2022/05/09 10:38:15;;;;;;;6.80;1.80;;;17.90;71.70;;;;;;5021401;28;20475;-82
2022/05/09 10:40:47;;;;;;;6.50;1.57;;;17.90;71.90;;;;;;5023078;28;20207;-82
2022/05/09 10:43:20;;;;;;;5.73;1.87;;;18.10;71.30;;;;;;5008763;28;20200;-82
2022/05/09 10:45:49;;;;;;;5.77;1.60;;;18.10;69.60;;;;;;5021924;28;20196;-83
2022/05/09 10:48:23;;;;;;;4.30;2.23;;;18.20;67.40;;;;;;5019362;28;20447;-82
2022/05/09 10:50:55;;;;;;;5.27;1.90;;;18.30;67.50;;;;;;5022511;28;20219;-84
2022/05/09 10:53:32;;;;;;;3.40;1.50;;;18.30;67.50;;;;;;5018864;28;20200;-84
2022/05/09 10:56:06;;;;;;;5.50;1.50;;;18.20;66.10;;;;;;5013756;28;20208;-83
2022/05/09 10:58:38;;;;;;;2.90;1.67;;;18.20;67.00;;;;;;5028071;28;20306;-82
2022/05/09 11:01:09;;;;;;;3.23;1.50;;;18.20;67.00;;;;;;5025132;28;20735;-82
2022/05/09 11:03:37;;;;;;;2.13;1.30;;;18.30;63.70;;;;;;5000278;28;20616;-82
2022/05/09 11:06:18;;;;;;;3.43;1.37;;;18.40;60.00;;;;;;5020539;28;20448;-83
2022/05/09 11:09:02;;;;;;;1.90;1.13;;;18.50;58.40;;;;;;5003946;28;20218;-83
2022/05/09 11:11:39;;;;;;;3.13;1.37;;;18.60;56.80;;;;;;5022692;28;20212;-83
2022/05/09 11:14:17;;;;;;;3.07;1.20;;;18.60;56.50;;;;;;5023414;28;20223;-82
2022/05/09 11:17:02;;;;;;;3.03;1.30;;;18.70;56.50;;;;;;5027734;28;20198;-82
2022/05/09 11:19:44;;;;;;;2.87;1.63;;;18.80;55.40;;;;;;4996938;28;20295;-81
2022/05/09 11:22:21;;;;;;;3.97;1.50;;;19.00;54.00;;;;;;5023308;28;20928;-82
2022/05/09 11:25:02;;;;;;;3.33;1.40;;;19.00;53.40;;;;;;5020014;28;20250;-82
2022/05/09 11:27:48;;;;;;;3.37;1.30;;;19.20;52.30;;;;;;5019645;28;20227;-82
2022/05/09 11:30:33;;;;;;;4.00;1.40;;;19.20;52.10;;;;;;5027048;28;20657;-81
2022/05/09 11:33:16;;;;;;;3.77;1.40;;;19.20;51.80;;;;;;5013713;28;20199;-81
2022/05/09 11:35:45;;;;;;;3.10;1.57;;;19.20;52.50;;;;;;5033196;28;20262;-81
2022/05/09 11:38:26;;;;;;;5.93;1.70;;;19.20;52.40;;;;;;5025837;28;20581;-81
2022/05/09 11:41:01;;;;;;;5.23;1.47;;;19.20;51.40;;;;;;5019165;28;20196;-81
2022/05/09 11:43:50;;;;;;;3.53;1.50;;;19.30;52.00;;;;;;5007097;28;20222;-81
2022/05/09 11:46:28;;;;;;;4.53;1.10;;;19.50;50.80;;;;;;5019332;28;20729;-82
2022/05/09 11:49:22;;;;;;;2.43;1.57;;;19.50;49.90;;;;;;5016501;28;20212;-81
2022/05/09 11:51:52;;;;;;;2.00;1.40;;;19.60;49.30;;;;;;5025612;28;20219;-81
2022/05/09 11:54:25;;;;;;;2.17;1.47;;;19.70;49.10;;;;;;5011510;28;20231;-81
2022/05/09 11:56:57;;;;;;;7.20;1.97;;;19.90;49.60;;;;;;5020995;28;20211;-81
2022/05/09 11:59:28;;;;;;;4.50;1.80;;;19.80;49.40;;;;;;5028672;28;20202;-81
2022/05/09 12:01:57;;;;;;;3.80;1.63;;;19.80;49.90;;;;;;5022774;28;20192;-80
2022/05/09 12:04:34;;;;;;;3.27;1.80;;;19.80;50.80;;;;;;5031806;28;20219;-81
2022/05/09 12:07:00;;;;;;;6.47;2.20;;;19.80;50.90;;;;;;5015449;28;20988;-81
2022/05/09 12:09:57;;;;;;;6.57;1.80;;;19.80;50.60;;;;;;5017359;28;20709;-80
2022/05/09 12:12:43;;;;;;;3.10;1.53;;;19.90;51.10;;;;;;5014029;28;20208;-81
2022/05/09 12:15:51;;;;;;;5.87;1.80;;;20.00;51.10;;;;;;5010420;28;22057;-81
2022/05/09 12:18:21;;;;;;;4.20;1.87;;;20.10;50.30;;;;;;5024425;28;20425;-80
2022/05/09 12:21:12;;;;;;;4.63;1.83;;;20.40;51.00;;;;;;5007949;28;20242;-80
2022/05/09 12:24:08;;;;;;;2.97;1.60;;;20.50;50.90;;;;;;5028234;28;20258;-81
2022/05/09 12:26:37;;;;;;;5.30;2.00;;;20.60;51.30;;;;;;5012503;28;20196;-81
2022/05/09 12:29:09;;;;;;;5.00;1.90;;;20.90;51.30;;;;;;5009769;28;20222;-81
2022/05/09 12:31:44;;;;;;;3.90;1.50;;;21.00;50.90;;;;;;5014076;28;20226;-81
2022/05/09 12:34:14;;;;;;;5.83;1.67;;;21.00;50.80;;;;;;5020692;28;20804;-81
2022/05/09 12:36:42;;;;;;;4.33;2.13;;;21.00;50.30;;;;;;5020818;28;20214;-80
2022/05/09 12:39:10;;;;;;;5.03;2.00;;;21.10;48.90;;;;;;5012810;28;20405;-83
2022/05/09 12:41:45;;;;;;;3.80;1.23;;;20.80;49.50;;;;;;5009917;28;20185;-82
2022/05/09 12:44:15;;;;;;;3.80;1.60;;;20.90;50.10;;;;;;5018416;28;21155;-83
2022/05/09 12:46:47;;;;;;;7.67;1.70;;;21.20;50.50;;;;;;5025955;28;20203;-82
2022/05/09 12:49:17;;;;;;;2.87;1.40;;;21.40;50.20;;;;;;5017437;28;20211;-82
2022/05/09 12:51:46;;;;;;;4.87;1.60;;;21.50;51.00;;;;;;5022414;28;20227;-82
2022/05/09 12:54:16;;;;;;;5.77;1.63;;;21.70;50.50;;;;;;5003060;28;20839;-83
2022/05/09 12:56:47;;;;;;;2.67;1.60;;;22.00;50.00;;;;;;4995923;28;20208;-83
2022/05/09 12:59:16;;;;;;;6.17;1.50;;;22.30;48.80;;;;;;5005116;28;20204;-83
2022/05/09 13:01:52;;;;;;;3.10;1.60;;;22.60;47.40;;;;;;5007154;28;20207;-83
2022/05/09 13:04:23;;;;;;;3.80;1.53;;;22.90;46.10;;;;;;5036743;28;20235;-83
2022/05/09 13:06:52;;;;;;;6.03;2.00;;;23.00;45.30;;;;;;5026528;28;20799;-82
2022/05/09 13:09:22;;;;;;;2.83;1.43;;;23.00;45.20;;;;;;5017442;28;20219;-83
2022/05/09 13:11:53;;;;;;;6.40;1.80;;;23.30;45.30;;;;;;5018743;28;20215;-84
2022/05/09 13:14:25;;;;;;;5.40;1.63;;;23.60;44.40;;;;;;5029738;28;20730;-83
2022/05/09 13:16:56;;;;;;;5.75;2.38;;;24.10;43.50;;;;;;5019429;28;20207;-82
2022/05/09 13:19:24;;;;;;;1.90;1.50;;;24.30;42.60;;;;;;5011589;28;20684;-83